createdAt,value
2022-09-02T00:00:17.641Z,3.70
2022-09-02T00:01:16.630Z,3.50
2022-09-02T00:02:16.802Z,3.50
2022-09-02T00:03:16.934Z,3.70
2022-09-02T00:04:16.589Z,3.50
2022-09-02T00:05:16.596Z,3.70
2022-09-02T00:06:16.590Z,3.60
2022-09-02T00:07:16.581Z,3.50
2022-09-02T00:08:16.553Z,3.20
2022-09-02T00:09:16.558Z,3.40
2022-09-02T00:10:16.568Z,3.50
2022-09-02T00:11:16.531Z,3.40
2022-09-02T00:12:16.505Z,3.50
2022-09-02T00:13:16.569Z,3.30
2022-09-02T00:14:16.541Z,3.50
2022-09-02T00:15:16.526Z,3.20
2022-09-02T00:16:16.482Z,3.40
2022-09-02T00:17:16.518Z,3.30
2022-09-02T00:18:18.273Z,3.50
2022-09-02T00:19:16.571Z,3.20
2022-09-02T00:20:16.445Z,3.40
2022-09-02T00:21:16.431Z,3.30
2022-09-02T00:22:16.411Z,3.30
2022-09-02T00:23:16.391Z,3.20
2022-09-02T00:24:16.374Z,3.20
2022-09-02T00:25:16.546Z,3.20
2022-09-02T00:26:16.379Z,3.00
2022-09-02T00:27:16.345Z,3.40
2022-09-02T00:28:16.386Z,3.20
2022-09-02T00:29:16.337Z,3.20
2022-09-02T00:30:16.384Z,3.40
2022-09-02T00:31:16.346Z,3.40
2022-09-02T00:32:16.432Z,2.90
2022-09-02T00:33:16.286Z,3.40
2022-09-02T00:34:16.269Z,3.10
2022-09-02T00:35:16.283Z,3.40
2022-09-02T00:36:16.351Z,3.00
2022-09-02T00:37:16.243Z,3.10
2022-09-02T00:38:16.270Z,3.20
2022-09-02T00:39:16.252Z,2.90
2022-09-02T00:40:16.238Z,3.30
2022-09-02T00:41:16.214Z,3.10
2022-09-02T00:42:16.175Z,3.20
2022-09-02T00:43:16.205Z,3.10
2022-09-02T00:44:16.187Z,3.10
2022-09-02T00:45:16.204Z,3.00
2022-09-02T00:46:16.191Z,3.10
2022-09-02T00:47:16.244Z,3.10
2022-09-02T00:48:16.119Z,3.20
2022-09-02T00:49:16.131Z,3.30
2022-09-02T00:50:16.110Z,3.10
2022-09-02T00:51:16.116Z,3.30
2022-09-02T00:52:16.065Z,3.10
2022-09-02T00:53:16.058Z,3.10
2022-09-02T00:54:16.061Z,3.40
2022-09-02T00:55:16.048Z,3.10
2022-09-02T00:56:16.051Z,2.90
2022-09-02T00:57:16.010Z,3.00
2022-09-02T00:58:16.015Z,3.20
2022-09-02T00:59:15.990Z,3.50
2022-09-02T01:00:16.099Z,2.90
2022-09-02T01:01:16.156Z,2.90
2022-09-02T01:02:16.113Z,3.10
2022-09-02T01:03:16.045Z,2.80
2022-09-02T01:04:15.945Z,2.90
2022-09-02T01:05:15.996Z,2.90
2022-09-02T01:06:15.933Z,3.00
2022-09-02T01:07:15.958Z,2.90
2022-09-02T01:08:15.893Z,3.20
2022-09-02T01:09:15.892Z,3.20
2022-09-02T01:10:15.868Z,3.30
2022-09-02T01:11:15.876Z,3.00
2022-09-02T01:12:16.019Z,3.20
2022-09-02T01:13:15.853Z,3.20
2022-09-02T01:14:15.831Z,3.60
2022-09-02T01:15:15.839Z,3.30
2022-09-02T01:16:15.857Z,3.10
2022-09-02T01:17:15.819Z,2.90
2022-09-02T01:18:15.867Z,3.00
2022-09-02T01:19:15.844Z,2.90
2022-09-02T01:20:15.772Z,3.00
2022-09-02T01:21:15.773Z,2.90
2022-09-02T01:22:15.762Z,3.00
2022-09-02T01:23:15.777Z,3.00
2022-09-02T01:24:15.727Z,2.90
2022-09-02T01:25:15.797Z,2.80
2022-09-02T01:26:15.700Z,3.00
2022-09-02T01:27:15.768Z,3.00
2022-09-02T01:28:15.691Z,3.20
2022-09-02T01:29:15.684Z,2.90
2022-09-02T01:30:15.713Z,3.00
2022-09-02T01:31:15.709Z,2.90
2022-09-02T01:32:15.644Z,3.00
2022-09-02T01:33:15.705Z,2.70
2022-09-02T01:34:15.734Z,2.80
2022-09-02T01:35:15.622Z,2.70
2022-09-02T01:36:15.593Z,2.80
2022-09-02T01:37:15.583Z,2.80
2022-09-02T01:38:15.579Z,2.60
2022-09-02T01:39:15.564Z,2.80
2022-09-02T01:40:15.629Z,2.90
2022-09-02T01:41:15.573Z,2.90
2022-09-02T01:42:15.532Z,2.80
2022-09-02T01:43:15.540Z,2.60
2022-09-02T01:44:15.503Z,2.50
2022-09-02T01:45:15.554Z,2.50
2022-09-02T01:46:15.550Z,2.70
2022-09-02T01:47:15.485Z,2.90
2022-09-02T01:48:16.069Z,2.80
2022-09-02T01:49:16.538Z,2.60
2022-09-02T01:50:15.448Z,2.80
2022-09-02T01:51:15.449Z,2.70
2022-09-02T01:52:15.471Z,2.90
2022-09-02T01:53:15.468Z,2.90
2022-09-02T01:54:15.444Z,3.00
2022-09-02T01:55:15.390Z,2.80
2022-09-02T01:56:15.423Z,2.80
2022-09-02T01:57:15.466Z,3.00
2022-09-02T01:58:15.428Z,3.00
2022-09-02T01:59:15.460Z,2.80
2022-09-02T02:00:15.339Z,3.10
2022-09-02T02:01:15.455Z,2.70
2022-09-02T02:02:15.352Z,2.70
2022-09-02T02:03:15.326Z,2.80
2022-09-02T02:04:15.293Z,2.90
2022-09-02T02:05:15.295Z,3.10
2022-09-02T02:06:15.305Z,2.90
2022-09-02T02:07:15.310Z,3.00
2022-09-02T02:08:15.256Z,2.90
2022-09-02T02:09:15.243Z,3.10
2022-09-02T02:10:15.280Z,2.90
2022-09-02T02:11:15.240Z,3.00
2022-09-02T02:12:15.222Z,3.00
2022-09-02T02:13:15.302Z,3.10
2022-09-02T02:14:15.200Z,3.20
2022-09-02T02:15:15.200Z,3.00
2022-09-02T02:16:15.193Z,3.20
2022-09-02T02:17:15.198Z,3.10
2022-09-02T02:18:15.168Z,3.00
2022-09-02T02:19:15.156Z,3.00
2022-09-02T02:20:15.122Z,3.00
2022-09-02T02:21:15.213Z,3.10
2022-09-02T02:22:15.111Z,2.90
2022-09-02T02:23:15.105Z,2.90
2022-09-02T02:24:15.095Z,3.40
2022-09-02T02:25:15.111Z,3.00
2022-09-02T02:26:15.069Z,3.00
2022-09-02T02:27:15.071Z,3.20
2022-09-02T02:28:15.138Z,3.10
2022-09-02T02:29:15.027Z,3.10
2022-09-02T02:30:15.088Z,3.00
2022-09-02T02:31:15.089Z,2.80
2022-09-02T02:32:15.007Z,2.90
2022-09-02T02:33:14.999Z,2.80
2022-09-02T02:34:14.997Z,2.80
2022-09-02T02:35:14.963Z,3.00
2022-09-02T02:36:14.955Z,2.80
2022-09-02T02:37:14.957Z,3.30
2022-09-02T02:38:15.643Z,3.00
2022-09-02T02:39:14.918Z,3.30
2022-09-02T02:40:14.995Z,3.00
2022-09-02T02:41:14.962Z,2.90
2022-09-02T02:42:14.933Z,3.00
2022-09-02T02:43:14.934Z,3.00
2022-09-02T02:44:14.956Z,3.10
2022-09-02T02:45:15.047Z,3.00
2022-09-02T02:46:14.900Z,2.90
2022-09-02T02:47:14.936Z,2.80
2022-09-02T02:48:14.881Z,2.80
2022-09-02T02:49:14.818Z,2.80
2022-09-02T02:50:14.813Z,2.80
2022-09-02T02:51:14.797Z,3.00
2022-09-02T02:52:14.785Z,3.10
2022-09-02T02:53:14.811Z,2.60
2022-09-02T02:54:14.758Z,2.80
2022-09-02T02:55:14.791Z,2.80
2022-09-02T02:56:14.753Z,2.90
2022-09-02T02:57:14.734Z,3.10
2022-09-02T02:58:15.904Z,2.90
2022-09-02T02:59:14.813Z,2.70
2022-09-02T03:00:14.712Z,2.90
2022-09-02T03:01:14.681Z,2.60
2022-09-02T03:02:14.833Z,2.80
2022-09-02T03:03:14.728Z,2.90
2022-09-02T03:04:14.656Z,2.80
2022-09-02T03:05:14.662Z,2.70
2022-09-02T03:06:14.690Z,2.90
2022-09-02T03:07:14.614Z,2.90
2022-09-02T03:08:14.594Z,2.90
2022-09-02T03:09:14.589Z,2.70
2022-09-02T03:10:14.590Z,2.60
2022-09-02T03:11:14.611Z,2.90
2022-09-02T03:12:14.610Z,2.60
2022-09-02T03:13:14.604Z,3.00
2022-09-02T03:14:14.535Z,2.90
2022-09-02T03:15:14.521Z,3.00
2022-09-02T03:16:14.578Z,2.70
2022-09-02T03:17:14.560Z,3.00
2022-09-02T03:18:14.486Z,3.00
2022-09-02T03:19:14.516Z,2.90
2022-09-02T03:20:14.466Z,2.90
2022-09-02T03:21:14.562Z,3.00
2022-09-02T03:22:14.493Z,3.10
2022-09-02T03:23:14.537Z,2.80
2022-09-02T03:24:14.572Z,2.90
2022-09-02T03:25:14.429Z,2.80
2022-09-02T03:26:14.485Z,2.80
2022-09-02T03:27:14.393Z,2.90
2022-09-02T03:28:14.399Z,2.70
2022-09-02T03:29:14.455Z,2.50
2022-09-02T03:30:14.380Z,2.80
2022-09-02T03:31:14.417Z,2.60
2022-09-02T03:32:14.758Z,2.60
2022-09-02T03:33:14.396Z,2.70
2022-09-02T03:34:14.364Z,2.50
2022-09-02T03:35:14.327Z,2.80
2022-09-02T03:36:14.290Z,2.80
2022-09-02T03:37:14.294Z,2.60
2022-09-02T03:38:14.382Z,2.40
2022-09-02T03:39:14.316Z,2.60
2022-09-02T03:40:14.292Z,2.50
2022-09-02T03:41:14.243Z,2.40
2022-09-02T03:42:19.408Z,2.70
2022-09-02T03:43:15.236Z,2.60
2022-09-02T03:44:14.280Z,2.50
2022-09-02T03:45:14.223Z,2.60
2022-09-02T03:46:14.433Z,2.70
2022-09-02T03:47:14.181Z,2.90
2022-09-02T03:48:14.209Z,2.60
2022-09-02T03:49:14.149Z,2.70
2022-09-02T03:50:14.145Z,2.50
2022-09-02T03:51:14.146Z,2.40
2022-09-02T03:52:14.152Z,2.60
2022-09-02T03:53:19.962Z,2.40
2022-09-02T03:54:15.127Z,2.80
2022-09-02T03:55:14.125Z,2.50
2022-09-02T03:56:14.099Z,2.50
2022-09-02T03:57:14.093Z,2.50
2022-09-02T03:58:14.063Z,2.50
2022-09-02T03:59:14.059Z,2.60
2022-09-02T04:00:14.039Z,2.50
2022-09-02T04:01:14.057Z,2.50
2022-09-02T04:02:14.154Z,2.70
2022-09-02T04:03:14.172Z,2.50
2022-09-02T04:04:13.989Z,2.50
2022-09-02T04:05:15.973Z,2.60
2022-09-02T04:06:13.979Z,2.60
2022-09-02T04:07:13.973Z,2.80
2022-09-02T04:08:13.948Z,2.80
2022-09-02T04:09:13.963Z,2.90
2022-09-02T04:10:13.928Z,2.60
2022-09-02T04:11:13.936Z,2.40
2022-09-02T04:12:13.925Z,2.80
2022-09-02T04:13:13.977Z,2.40
2022-09-02T04:14:13.900Z,2.60
2022-09-02T04:15:13.916Z,2.60
2022-09-02T04:16:13.947Z,2.60
2022-09-02T04:17:13.915Z,2.70
2022-09-02T04:18:13.910Z,2.70
2022-09-02T04:19:13.829Z,2.70
2022-09-02T04:20:13.823Z,2.60
2022-09-02T04:21:13.816Z,2.50
2022-09-02T04:22:13.813Z,2.70
2022-09-02T04:23:13.895Z,2.70
2022-09-02T04:24:13.778Z,2.60
2022-09-02T04:25:13.771Z,2.50
2022-09-02T04:26:13.796Z,2.60
2022-09-02T04:27:13.817Z,2.60
2022-09-02T04:28:13.742Z,2.40
2022-09-02T04:29:13.794Z,2.60
2022-09-02T04:30:13.713Z,2.70
2022-09-02T04:31:13.783Z,2.70
2022-09-02T04:32:13.727Z,2.60
2022-09-02T04:33:13.948Z,2.40
2022-09-02T04:34:13.696Z,2.60
2022-09-02T04:35:13.656Z,2.40
2022-09-02T04:36:14.702Z,2.50
2022-09-02T04:37:13.651Z,2.50
2022-09-02T04:38:13.623Z,2.40
2022-09-02T04:39:13.654Z,2.50
2022-09-02T04:40:13.684Z,2.40
2022-09-02T04:41:13.585Z,2.60
2022-09-02T04:42:13.638Z,2.30
2022-09-02T04:43:13.677Z,2.60
2022-09-02T04:44:13.581Z,2.40
2022-09-02T04:45:13.545Z,2.60
2022-09-02T04:46:13.609Z,2.60
2022-09-02T04:47:13.543Z,2.40
2022-09-02T04:48:13.542Z,2.30
2022-09-02T04:49:13.500Z,2.50
2022-09-02T04:50:13.597Z,2.50
2022-09-02T04:51:13.494Z,2.30
2022-09-02T04:52:13.584Z,2.70
2022-09-02T04:53:13.490Z,2.20
2022-09-02T04:54:13.485Z,2.20
2022-09-02T04:55:13.483Z,2.40
2022-09-02T04:56:13.448Z,2.20
2022-09-02T04:57:13.447Z,2.30
2022-09-02T04:58:13.404Z,2.40
2022-09-02T04:59:13.424Z,2.30
2022-09-02T05:00:13.403Z,2.60
2022-09-02T05:01:13.577Z,2.30
2022-09-02T05:02:13.500Z,2.20
2022-09-02T05:03:13.474Z,2.50
2022-09-02T05:04:13.343Z,2.30
2022-09-02T05:05:13.399Z,2.30
2022-09-02T05:06:13.341Z,2.30
2022-09-02T05:07:13.365Z,2.30
2022-09-02T05:08:13.363Z,2.30
2022-09-02T05:09:13.309Z,2.20
2022-09-02T05:10:13.279Z,2.60
2022-09-02T05:11:13.306Z,2.30
2022-09-02T05:12:13.308Z,2.20
2022-09-02T05:13:13.325Z,2.30
2022-09-02T05:14:13.246Z,2.30
2022-09-02T05:15:13.227Z,2.30
2022-09-02T05:16:13.352Z,2.10
2022-09-02T05:17:13.236Z,2.40
2022-09-02T05:18:13.238Z,2.50
2022-09-02T05:19:13.702Z,2.40
2022-09-02T05:20:13.197Z,2.20
2022-09-02T05:21:13.213Z,2.20
2022-09-02T05:22:13.165Z,2.00
2022-09-02T05:23:13.138Z,2.30
2022-09-02T05:24:13.176Z,2.00
2022-09-02T05:25:13.174Z,2.00
2022-09-02T05:26:13.282Z,2.10
2022-09-02T05:27:13.104Z,2.10
2022-09-02T05:28:13.082Z,2.20
2022-09-02T05:29:13.088Z,2.20
2022-09-02T05:30:13.106Z,2.10
2022-09-02T05:31:13.125Z,2.30
2022-09-02T05:32:13.158Z,2.10
2022-09-02T05:33:13.972Z,2.20
2022-09-02T05:34:13.007Z,2.00
2022-09-02T05:35:13.003Z,2.10
2022-09-02T05:36:12.982Z,2.30
2022-09-02T05:37:12.994Z,2.20
2022-09-02T05:38:12.963Z,2.10
2022-09-02T05:39:12.979Z,2.30
2022-09-02T05:40:14.794Z,2.20
2022-09-02T05:41:12.927Z,2.00
2022-09-02T05:42:12.948Z,2.20
2022-09-02T05:43:12.902Z,2.20
2022-09-02T05:44:12.888Z,2.00
2022-09-02T05:45:16.430Z,2.10
2022-09-02T05:46:12.947Z,2.00
2022-09-02T05:47:12.873Z,1.90
2022-09-02T05:48:12.859Z,2.00
2022-09-02T05:49:12.833Z,2.10
2022-09-02T05:50:14.337Z,1.90
2022-09-02T05:51:12.866Z,2.00
2022-09-02T05:52:12.811Z,2.10
2022-09-02T05:53:14.407Z,1.80
2022-09-02T05:54:12.860Z,2.10
2022-09-02T05:55:12.778Z,2.20
2022-09-02T05:56:12.769Z,2.10
2022-09-02T05:57:12.817Z,2.00
2022-09-02T05:58:12.760Z,1.90
2022-09-02T05:59:12.738Z,2.00
2022-09-02T06:00:18.213Z,2.00
2022-09-02T06:01:13.765Z,1.80
2022-09-02T06:02:12.949Z,1.80
2022-09-02T06:03:12.772Z,2.00
2022-09-02T06:04:12.699Z,1.70
2022-09-02T06:05:12.665Z,1.80
2022-09-02T06:06:12.657Z,1.90
2022-09-02T06:07:13.604Z,1.80
2022-09-02T06:08:12.644Z,1.80
2022-09-02T06:09:12.615Z,1.70
2022-09-02T06:10:12.639Z,1.50
2022-09-02T06:11:12.597Z,1.80
2022-09-02T06:12:12.597Z,1.90
2022-09-02T06:13:12.577Z,1.50
2022-09-02T06:14:12.563Z,1.50
2022-09-02T06:15:12.585Z,1.60
2022-09-02T06:16:12.662Z,1.70
2022-09-02T06:17:12.547Z,1.70
2022-09-02T06:18:12.546Z,1.80
2022-09-02T06:19:15.357Z,1.80
2022-09-02T06:20:13.508Z,1.70
2022-09-02T06:21:12.500Z,1.80
2022-09-02T06:22:12.496Z,1.60
2022-09-02T06:23:12.486Z,1.50
2022-09-02T06:24:12.505Z,1.60
2022-09-02T06:25:12.445Z,1.70
2022-09-02T06:26:12.437Z,1.80
2022-09-02T06:27:12.436Z,1.60
2022-09-02T06:28:12.420Z,1.60
2022-09-02T06:29:12.430Z,1.70
2022-09-02T06:30:12.395Z,1.50
2022-09-02T06:31:12.423Z,1.50
2022-09-02T06:32:12.435Z,1.60
2022-09-02T06:33:12.380Z,1.60
2022-09-02T06:34:12.344Z,1.60
2022-09-02T06:35:12.338Z,1.60
2022-09-02T06:36:12.358Z,1.60
2022-09-02T06:37:12.341Z,1.70
2022-09-02T06:38:12.355Z,1.60
2022-09-02T06:39:12.295Z,1.70
2022-09-02T06:40:12.337Z,1.40
2022-09-02T06:41:12.287Z,1.50
2022-09-02T06:42:12.308Z,1.50
2022-09-02T06:43:12.291Z,1.70
2022-09-02T06:44:12.246Z,1.70
2022-09-02T06:45:12.226Z,1.70
2022-09-02T06:46:12.294Z,1.50
2022-09-02T06:47:12.228Z,1.50
2022-09-02T06:48:12.201Z,1.50
2022-09-02T06:49:12.289Z,1.70
2022-09-02T06:50:12.199Z,1.60
2022-09-02T06:51:12.164Z,1.50
2022-09-02T06:52:12.159Z,1.40
2022-09-02T06:53:12.148Z,1.60
2022-09-02T06:54:14.226Z,1.40
2022-09-02T07:03:15.323Z,1.50
2022-09-02T07:04:15.276Z,1.50
2022-09-02T07:05:15.383Z,1.30
2022-09-02T07:06:15.221Z,1.40
2022-09-02T07:07:15.228Z,1.40
2022-09-02T07:08:15.303Z,1.40
2022-09-02T07:09:15.307Z,1.60
2022-09-02T07:10:15.246Z,1.40
2022-09-02T07:11:15.298Z,1.40
2022-09-02T07:12:15.167Z,1.50
2022-09-02T07:13:15.164Z,1.40
2022-09-02T07:14:15.145Z,1.40
2022-09-02T07:15:15.143Z,1.50
2022-09-02T07:16:22.751Z,1.30
2022-09-02T07:17:16.150Z,1.30
2022-09-02T07:18:15.165Z,1.40
2022-09-02T07:19:19.906Z,1.40
2022-09-02T07:20:16.141Z,1.60
2022-09-02T07:21:15.084Z,1.40
2022-09-02T07:22:15.059Z,1.40
2022-09-02T07:23:15.090Z,1.30
2022-09-02T07:24:15.056Z,1.30
2022-09-02T07:25:15.058Z,1.40
2022-09-02T07:26:15.216Z,1.30
2022-09-02T07:27:14.995Z,1.40
2022-09-02T07:28:14.983Z,1.40
2022-09-02T07:29:15.049Z,1.30
2022-09-02T07:30:15.061Z,1.40
2022-09-02T07:31:15.012Z,1.50
2022-09-02T07:32:14.943Z,1.20
2022-09-02T07:33:14.930Z,1.30
2022-09-02T07:34:14.922Z,1.50
2022-09-02T07:35:14.909Z,1.40
2022-09-02T07:36:14.909Z,1.40
2022-09-02T07:37:14.903Z,1.40
2022-09-02T07:38:14.878Z,1.40
2022-09-02T07:39:14.962Z,1.30
2022-09-02T07:40:14.899Z,1.30
2022-09-02T07:41:14.856Z,1.40
2022-09-02T07:42:14.968Z,1.50
2022-09-02T07:43:14.826Z,1.50
2022-09-02T07:44:14.808Z,1.50
2022-09-02T07:45:14.821Z,1.40
2022-09-02T07:46:14.869Z,1.40
2022-09-02T07:47:14.787Z,1.50
2022-09-02T07:48:14.776Z,1.30
2022-09-02T07:49:14.825Z,1.40
2022-09-02T07:50:17.304Z,1.50
2022-09-02T07:51:14.739Z,1.40
2022-09-02T07:52:14.732Z,1.60
2022-09-02T07:53:14.711Z,1.50
2022-09-02T07:54:14.722Z,1.30
2022-09-02T07:55:15.274Z,1.40
2022-09-02T07:56:14.708Z,1.40
2022-09-02T07:57:14.667Z,1.30
2022-09-02T07:58:16.166Z,1.40
2022-09-02T07:59:14.671Z,1.50
2022-09-02T08:00:14.648Z,1.50
2022-09-02T08:01:14.775Z,1.40
2022-09-02T08:02:14.719Z,1.30
2022-09-02T08:03:14.682Z,1.40
2022-09-02T08:04:14.616Z,1.30
2022-09-02T08:05:14.643Z,1.40
2022-09-02T08:06:14.607Z,1.50
2022-09-02T08:07:14.637Z,1.40
2022-09-02T08:08:14.546Z,1.40
2022-09-02T08:09:14.567Z,1.50
2022-09-02T08:10:14.740Z,1.40
2022-09-02T08:11:14.550Z,1.40
2022-09-02T08:12:16.752Z,1.30
2022-09-02T08:13:14.664Z,1.60
2022-09-02T08:14:14.534Z,1.30
2022-09-02T08:15:14.548Z,1.40
2022-09-02T08:16:14.521Z,1.30
2022-09-02T08:17:14.531Z,1.40
2022-09-02T08:18:22.235Z,1.50
2022-09-02T08:19:15.432Z,1.40
2022-09-02T08:20:14.422Z,1.40
2022-09-02T08:21:14.426Z,1.40
2022-09-02T08:22:14.404Z,1.40
2022-09-02T08:23:33.204Z,1.40
2022-09-02T08:24:15.424Z,1.40
2022-09-02T08:25:14.411Z,1.40
2022-09-02T08:26:14.404Z,1.40
2022-09-02T08:27:14.381Z,1.50
2022-09-02T08:28:14.460Z,1.40
2022-09-02T08:29:14.387Z,1.50
2022-09-02T08:30:14.309Z,1.60
2022-09-02T08:31:14.544Z,1.50
2022-09-02T08:32:14.344Z,1.40
2022-09-02T08:33:14.347Z,1.50
2022-09-02T08:34:14.271Z,1.40
2022-09-02T08:35:14.263Z,1.50
2022-09-02T08:36:14.248Z,1.60
2022-09-02T08:37:14.299Z,1.50
2022-09-02T08:38:14.265Z,1.50
2022-09-02T08:39:14.279Z,1.40
2022-09-02T08:40:14.305Z,1.50
2022-09-02T08:41:14.252Z,1.30
2022-09-02T08:42:14.182Z,1.30
2022-09-02T08:43:14.318Z,1.40
2022-09-02T08:44:14.194Z,1.40
2022-09-02T08:45:14.164Z,1.40
2022-09-02T08:46:14.264Z,1.20
2022-09-02T08:47:14.401Z,1.50
2022-09-02T08:48:14.124Z,1.40
2022-09-02T08:49:14.123Z,1.30
2022-09-02T08:50:14.240Z,1.40
2022-09-02T08:51:14.102Z,1.20
2022-09-02T08:52:17.679Z,1.20
2022-09-02T08:53:14.100Z,1.40
2022-09-02T08:54:14.050Z,1.30
2022-09-02T08:55:14.095Z,1.30
2022-09-02T08:56:14.024Z,1.30
2022-09-02T08:57:14.017Z,1.40
2022-09-02T08:58:14.071Z,1.30
2022-09-02T08:59:14.007Z,1.30
2022-09-02T09:00:13.999Z,1.20
2022-09-02T09:01:14.065Z,1.30
2022-09-02T09:02:16.790Z,1.20
2022-09-02T09:03:13.950Z,1.30
2022-09-02T09:04:13.952Z,1.10
2022-09-02T09:05:13.927Z,1.20
2022-09-02T09:06:13.932Z,1.30
2022-09-02T09:07:13.907Z,1.20
2022-09-02T09:08:14.854Z,1.20
2022-09-02T09:09:13.888Z,1.10
2022-09-02T09:10:13.881Z,1.20
2022-09-02T09:11:13.931Z,1.20
2022-09-02T09:12:13.966Z,1.10
2022-09-02T09:13:13.867Z,1.10
2022-09-02T09:14:13.844Z,1.10
2022-09-02T09:15:13.925Z,1.10
2022-09-02T09:16:13.924Z,1.00
2022-09-02T09:17:13.822Z,1.20
2022-09-02T09:18:13.803Z,1.10
2022-09-02T09:19:13.784Z,1.30
2022-09-02T09:20:13.797Z,1.10
2022-09-02T09:21:13.867Z,1.20
2022-09-02T09:22:13.764Z,1.00
2022-09-02T09:23:14.713Z,1.10
2022-09-02T09:24:13.926Z,1.30
2022-09-02T09:25:13.770Z,0.90
2022-09-02T09:26:13.727Z,1.20
2022-09-02T09:27:13.696Z,1.10
2022-09-02T09:28:13.705Z,1.10
2022-09-02T09:29:13.684Z,1.10
2022-09-02T09:30:15.519Z,1.20
2022-09-02T09:31:13.698Z,1.10
2022-09-02T09:32:13.810Z,1.10
2022-09-02T09:33:13.667Z,1.10
2022-09-02T09:34:13.618Z,1.10
2022-09-02T09:35:13.612Z,1.20
2022-09-02T09:36:13.760Z,1.10
2022-09-02T09:37:13.650Z,0.90
2022-09-02T09:38:13.575Z,1.00
2022-09-02T09:39:13.636Z,1.00
2022-09-02T09:40:13.671Z,1.20
2022-09-02T09:41:13.541Z,1.00
2022-09-02T09:42:13.648Z,1.10
2022-09-02T09:43:15.264Z,1.30
2022-09-02T09:44:13.534Z,1.20
2022-09-02T09:45:13.582Z,1.20
2022-09-02T09:46:13.553Z,1.10
2022-09-02T09:47:17.430Z,1.10
2022-09-02T09:48:13.476Z,1.10
2022-09-02T09:49:13.624Z,1.00
2022-09-02T09:50:13.452Z,1.00
2022-09-02T09:51:13.449Z,1.00
2022-09-02T09:52:13.436Z,1.00
2022-09-02T09:53:13.467Z,0.90
2022-09-02T09:54:13.418Z,0.90
2022-09-02T09:55:13.422Z,0.80
2022-09-02T09:56:13.498Z,0.80
2022-09-02T09:57:13.375Z,0.90
2022-09-02T09:58:13.366Z,0.90
2022-09-02T09:59:13.367Z,0.90
2022-09-02T10:00:13.344Z,0.90
2022-09-02T10:01:13.387Z,0.90
2022-09-02T10:02:13.346Z,0.90
2022-09-02T10:03:13.316Z,0.90
2022-09-02T10:04:39.461Z,1.00
2022-09-02T10:05:14.289Z,0.80
2022-09-02T10:06:13.276Z,1.00
2022-09-02T10:07:13.387Z,0.90
2022-09-02T10:08:15.146Z,0.80
2022-09-02T10:09:13.363Z,0.90
2022-09-02T10:10:13.234Z,1.10
2022-09-02T10:11:13.282Z,0.90
2022-09-02T10:12:13.221Z,0.80
2022-09-02T10:13:13.246Z,0.80
2022-09-02T10:14:13.303Z,0.90
2022-09-02T10:15:13.235Z,0.90
2022-09-02T10:16:13.234Z,0.80
2022-09-02T10:17:13.243Z,0.90
2022-09-02T10:18:13.196Z,0.90
2022-09-02T10:19:13.179Z,0.80
2022-09-02T10:20:13.171Z,1.00
2022-09-02T10:21:15.551Z,0.90
2022-09-02T10:22:13.160Z,0.90
2022-09-02T10:23:13.107Z,0.90
2022-09-02T10:24:13.086Z,0.90
2022-09-02T10:25:13.073Z,0.90
2022-09-02T10:26:13.130Z,0.80
2022-09-02T10:27:13.137Z,0.90
2022-09-02T10:28:13.044Z,0.90
2022-09-02T10:29:13.069Z,0.80
2022-09-02T10:30:13.017Z,0.90
2022-09-02T10:31:13.090Z,0.90
2022-09-02T10:32:13.072Z,0.90
2022-09-02T10:33:13.001Z,0.80
2022-09-02T10:34:13.026Z,1.00
2022-09-02T10:35:12.971Z,0.90
2022-09-02T10:36:18.917Z,0.80
2022-09-02T10:37:14.004Z,0.80
2022-09-02T10:38:12.972Z,0.90
2022-09-02T10:39:13.043Z,1.00
2022-09-02T10:40:12.961Z,0.90
2022-09-02T10:41:12.902Z,1.00
2022-09-02T10:42:12.896Z,0.90
2022-09-02T10:43:12.896Z,0.90
2022-09-02T10:44:12.876Z,0.90
2022-09-02T10:45:12.866Z,0.90
2022-09-02T10:46:12.888Z,0.80
2022-09-02T10:47:12.899Z,0.90
2022-09-02T10:48:12.828Z,0.80
2022-09-02T10:49:12.832Z,0.80
2022-09-02T10:50:12.808Z,0.90
2022-09-02T10:51:12.813Z,0.90
2022-09-02T10:52:12.818Z,0.80
2022-09-02T10:53:12.773Z,0.90
2022-09-02T10:54:12.763Z,0.80
2022-09-02T10:55:12.766Z,0.80
2022-09-02T10:56:12.741Z,0.80
2022-09-02T10:57:12.783Z,0.80
2022-09-02T10:58:12.716Z,1.00
2022-09-02T10:59:12.707Z,1.00
2022-09-02T11:00:12.702Z,0.90
2022-09-02T11:01:12.749Z,1.00
2022-09-02T11:02:12.690Z,1.00
2022-09-02T11:03:12.722Z,0.80
2022-09-02T11:04:12.648Z,1.00
2022-09-02T11:05:12.640Z,1.00
2022-09-02T11:06:12.641Z,0.80
2022-09-02T11:07:12.636Z,0.90
2022-09-02T11:08:12.606Z,1.10
2022-09-02T11:09:12.599Z,0.90
2022-09-02T11:10:12.592Z,0.90
2022-09-02T11:11:12.783Z,1.00
2022-09-02T11:12:12.577Z,0.90
2022-09-02T11:13:12.553Z,1.00
2022-09-02T11:14:12.540Z,0.90
2022-09-02T11:15:12.540Z,0.90
2022-09-02T11:16:12.614Z,1.00
2022-09-02T11:17:12.884Z,0.80
2022-09-02T11:19:12.492Z,0.90
2022-09-02T11:20:12.553Z,0.90
2022-09-02T11:21:12.460Z,0.90
2022-09-02T11:22:12.603Z,0.90
2022-09-02T11:23:12.454Z,0.90
2022-09-02T11:24:12.434Z,1.00
2022-09-02T11:25:12.432Z,0.90
2022-09-02T11:26:12.407Z,0.90
2022-09-02T11:27:25.986Z,0.90
2022-09-02T11:28:14.488Z,0.90
2022-09-02T11:29:12.383Z,1.00
2022-09-02T11:30:12.430Z,0.80
2022-09-02T11:31:12.362Z,0.90
2022-09-02T11:32:12.341Z,0.80
2022-09-02T11:33:12.342Z,0.80
2022-09-02T11:34:12.333Z,0.90
2022-09-02T11:35:12.363Z,0.90
2022-09-02T11:36:12.346Z,0.90
2022-09-02T11:37:13.150Z,0.90
2022-09-02T11:38:12.342Z,0.90
2022-09-02T11:39:12.270Z,1.00
2022-09-02T11:40:33.184Z,0.90
2022-09-02T11:42:13.271Z,0.80
2022-09-02T11:43:12.269Z,0.90
2022-09-02T11:44:12.222Z,0.80
2022-09-02T11:45:12.290Z,0.90
2022-09-02T11:46:12.246Z,0.90
2022-09-02T11:47:12.191Z,0.80
2022-09-02T11:48:12.218Z,0.90
2022-09-02T11:49:12.149Z,0.90
2022-09-02T11:50:12.211Z,1.10
2022-09-02T11:51:12.227Z,1.00
2022-09-02T11:52:12.199Z,0.80
2022-09-02T11:53:12.106Z,0.90
2022-09-02T11:54:12.104Z,0.90
2022-09-02T11:55:12.082Z,0.90
2022-09-02T11:56:12.199Z,1.00
2022-09-02T11:57:12.077Z,0.90
2022-09-02T11:58:12.051Z,0.90
2022-09-02T11:59:12.042Z,0.70
2022-09-02T12:00:12.033Z,0.90
2022-09-02T12:01:13.858Z,0.90
2022-09-02T12:02:12.007Z,0.90
2022-09-02T12:03:28.762Z,0.80
2022-09-02T12:05:13.103Z,0.90
2022-09-02T12:06:12.105Z,1.00
2022-09-02T12:07:12.131Z,0.80
2022-09-02T12:08:11.951Z,0.70
2022-09-02T12:09:11.991Z,0.80
2022-09-02T12:10:12.084Z,0.90
2022-09-02T12:11:11.909Z,1.00
2022-09-02T12:12:11.899Z,0.90
2022-09-02T12:13:11.962Z,0.80
2022-09-02T12:14:11.891Z,0.80
2022-09-02T12:15:11.876Z,0.90
2022-09-02T12:16:11.907Z,0.80
2022-09-02T12:17:11.843Z,0.80
2022-09-02T12:18:11.827Z,0.90
2022-09-02T12:19:11.832Z,0.90
2022-09-02T12:20:11.816Z,0.80
2022-09-02T12:21:18.295Z,0.90
2022-09-02T12:22:12.796Z,1.00
2022-09-02T12:23:11.807Z,0.90
2022-09-02T12:24:11.765Z,0.80
2022-09-02T12:25:11.755Z,0.90
2022-09-02T12:26:15.771Z,0.80
2022-09-02T12:27:11.731Z,0.80
2022-09-02T12:28:11.727Z,0.90
2022-09-02T12:29:12.709Z,0.90
2022-09-02T12:30:11.766Z,0.90
2022-09-02T12:31:11.681Z,0.80
2022-09-02T12:32:11.746Z,0.80
2022-09-02T12:33:11.668Z,0.80
2022-09-02T12:34:11.654Z,0.80
2022-09-02T12:35:11.646Z,0.80
2022-09-02T12:36:11.634Z,0.80
2022-09-02T12:37:11.627Z,0.80
2022-09-02T12:38:11.630Z,0.90
2022-09-02T12:39:11.658Z,0.80
2022-09-02T12:40:13.102Z,0.90
2022-09-02T12:41:12.281Z,0.80
2022-09-02T12:42:11.606Z,0.80
2022-09-02T12:43:11.554Z,0.80
2022-09-02T12:44:11.560Z,0.80
2022-09-02T12:45:11.538Z,0.90
2022-09-02T12:46:11.584Z,0.90
2022-09-02T12:47:11.530Z,0.80
2022-09-02T12:48:11.532Z,0.90
2022-09-02T12:49:11.550Z,0.90
2022-09-02T12:50:11.482Z,0.90
2022-09-02T12:51:11.473Z,0.90
2022-09-02T12:52:11.465Z,0.90
2022-09-02T12:53:11.467Z,1.00
2022-09-02T12:54:11.443Z,1.00
2022-09-02T12:55:11.428Z,0.80
2022-09-02T12:56:11.425Z,1.00
2022-09-02T12:57:11.425Z,0.90
2022-09-02T12:58:11.394Z,1.00
2022-09-02T12:59:11.398Z,0.90
2022-09-02T13:00:11.376Z,0.90
2022-09-02T13:01:11.533Z,0.90
2022-09-02T13:02:11.365Z,0.90
2022-09-02T13:03:11.357Z,0.80
2022-09-02T13:04:11.419Z,1.00
2022-09-02T13:05:11.323Z,0.80
2022-09-02T13:06:11.308Z,0.90
2022-09-02T13:07:11.304Z,0.90
2022-09-02T13:08:11.291Z,0.90
2022-09-02T13:09:11.365Z,0.80
2022-09-02T13:10:11.287Z,0.80
2022-09-02T13:11:11.255Z,0.90
2022-09-02T13:12:11.246Z,0.90
2022-09-02T13:13:11.342Z,1.00
2022-09-02T13:14:11.237Z,0.90
2022-09-02T13:15:11.289Z,1.00
2022-09-02T13:16:18.516Z,0.80
2022-09-02T13:17:33.072Z,0.80
2022-09-02T13:18:12.198Z,0.90
2022-09-02T13:19:11.616Z,0.90
2022-09-02T13:20:11.385Z,0.90
2022-09-02T13:21:11.148Z,0.90
2022-09-02T13:22:11.201Z,0.90
2022-09-02T13:23:11.125Z,0.80
2022-09-02T13:24:11.124Z,0.90
2022-09-02T13:25:13.213Z,1.20
2022-09-02T13:26:13.143Z,0.90
2022-09-02T13:27:12.169Z,0.90
2022-09-02T13:28:11.073Z,0.80
2022-09-02T13:29:11.069Z,0.90